首页
METAR-TAF:

METAR-TAF

机场 :

Woodward, 奧克拉荷馬州, 美国

纬度: 36-26-12N, 经度: 099-31-16W, 海拔: 667米

当前天气观测

该预报发布于27分钟前的00:15 UTC
静风
温度 10°C
湿度 37%
气压 1018 hPa
能見度: 16.1公里
天空无云

METAR: KWWR 180015Z AUTO 00000KT 10SM CLR 10/M04 A3007 RMK AO2

时间: 18:42 (00:42 UTC)

预报

该预报发布于1小时和6分钟前的23:36 UTC
预报有效从18日的 00点(UTC)到 18日的 24点(UTC)
风速8节,风向西南
能見度: 10公里
少量云层高于15000英尺
多云层高于25000英尺
从 18日的 1700点(UTC)
风速12节,风向北转西北
能見度: 10公里
少量云层高于25000英尺

TAF: KWWR 172336Z 1800/1824 22008KT P6SM FEW150 BKN250 FM181700 34012KT P6SM FEW250

超过4000个机场的气象观测和天气预报(METAR&TAF报告)。

可查询的气象台以黄色和红色小点在地图上表示。

将鼠标移到小点上方,可查看气象台名称。

然后点击查看天气观测和预报。

如需切换地图:点击带黑十字的绿色按钮放大地图;点击带横线的绿色按钮缩小地图;或者点击绿色箭头查看邻近地区的地图。


METAR-TAF: